Time;durP1;ratioP1;P1;durP2;ratioP2;P2;SDS_P1;SDS_P2;PMS_P1;PMS_P2;Temp;Humidity;BMP_temperature;BMP_pressure;BME280_temperature;BME280_humidity;BME280_pressure;Samples;Min_cycle;Max_cycle;Signal;HPM_P1;HPM_P2
2023/01/17 00:02:43;;;;;;;63.33;31.60;;;;;;;2.14;100.00;97548.50;5092445;28;19954;-72
2023/01/17 00:10:39;;;;;;;63.60;31.17;;;;;;;1.97;100.00;97535.59;5092386;28;20047;-72
2023/01/17 00:13:05;;;;;;;66.43;31.92;;;;;;;1.88;100.00;97548.59;5092434;28;20020;-71
2023/01/17 00:15:30;;;;;;;57.22;29.25;;;;;;;1.80;100.00;97543.91;5092183;28;20058;-72
2023/01/17 00:17:57;;;;;;;66.05;31.98;;;;;;;1.69;100.00;97544.63;5092052;28;20119;-72
2023/01/17 00:26:20;;;;;;;64.65;31.20;;;;;;;1.46;100.00;97563.38;5092306;28;20050;-71
2023/01/17 01:35:59;;;;;;;58.17;27.67;;;;;;;1.27;100.00;97545.28;5096464;28;20024;-71
2023/01/17 01:38:25;;;;;;;61.50;27.60;;;;;;;1.30;100.00;97549.16;5096424;28;20384;-71
2023/01/17 01:40:55;;;;;;;54.75;27.08;;;;;;;1.30;100.00;97547.13;5077197;28;20028;-71
2023/01/17 01:43:45;;;;;;;62.45;26.98;;;;;;;1.27;100.00;97548.09;5095963;28;20031;-71
2023/01/17 01:46:15;;;;;;;51.75;26.77;;;;;;;1.25;100.00;97544.25;5095365;28;20023;-71
2023/01/17 01:48:42;;;;;;;49.55;23.85;;;;;;;1.22;100.00;97534.00;5060878;28;20035;-71
2023/01/17 01:51:16;;;;;;;43.00;21.83;;;;;;;1.21;100.00;97541.66;5094803;28;20055;-72
2023/01/17 01:53:48;;;;;;;30.05;15.25;;;;;;;1.18;100.00;97534.22;5076942;28;20024;-72
2023/01/17 01:56:14;;;;;;;25.33;12.43;;;;;;;1.29;100.00;97548.38;5076636;28;20425;-72
2023/01/17 01:58:53;;;;;;;18.50;10.25;;;;;;;1.35;100.00;97554.84;5060207;28;20024;-71
2023/01/17 02:01:18;;;;;;;16.77;9.80;;;;;;;1.39;100.00;97541.31;5094582;28;20024;-71
2023/01/17 02:03:45;;;;;;;20.08;9.07;;;;;;;1.44;100.00;97537.00;5093479;28;20074;-72
2023/01/17 02:06:18;;;;;;;14.63;8.35;;;;;;;1.49;100.00;97533.47;5076497;28;20027;-72
2023/01/17 02:08:43;;;;;;;16.92;8.25;;;;;;;1.53;100.00;97527.59;5094698;28;20027;-72
2023/01/17 02:11:10;;;;;;;16.27;8.48;;;;;;;1.51;100.00;97522.47;5094564;28;20429;-71
2023/01/17 02:13:44;;;;;;;14.32;6.68;;;;;;;1.46;100.00;97509.13;5076595;28;20027;-71
2023/01/17 02:16:14;;;;;;;11.68;6.70;;;;;;;1.58;100.00;97524.06;5094233;28;20024;-72
2023/01/17 02:18:54;;;;;;;7.40;5.00;;;;;;;1.56;100.00;97527.38;5095146;28;20027;-72
2023/01/17 02:21:23;;;;;;;8.75;5.57;;;;;;;1.62;100.00;97533.03;5095407;28;20062;-70
2023/01/17 02:24:25;;;;;;;7.95;5.55;;;;;;;1.69;100.00;97526.97;5077444;28;20400;-72
2023/01/17 02:27:06;;;;;;;9.50;5.75;;;;;;;1.72;100.00;97529.53;5078539;28;20031;-72
2023/01/17 02:29:53;;;;;;;10.02;5.30;;;;;;;1.74;100.00;97529.06;5073904;28;20056;-71
2023/01/17 02:32:43;;;;;;;9.80;5.20;;;;;;;1.76;100.00;97527.25;5074990;28;20534;-73
2023/01/17 02:35:28;;;;;;;9.23;5.20;;;;;;;1.77;100.00;97528.81;5075167;28;20021;-72
2023/01/17 02:38:25;;;;;;;8.60;5.13;;;;;;;1.68;100.00;97509.31;5075043;28;20135;-72
2023/01/17 02:40:54;;;;;;;8.82;5.07;;;;;;;1.73;100.00;97505.75;5075087;28;20028;-71
2023/01/17 02:43:22;;;;;;;10.18;5.95;;;;;;;1.71;100.00;97499.84;5056808;28;20056;-71
2023/01/17 02:45:49;;;;;;;12.90;6.88;;;;;;;1.68;100.00;97494.47;5056797;28;20093;-71
2023/01/17 02:48:23;;;;;;;9.30;5.70;;;;;;;1.66;100.00;97494.19;5074695;28;20027;-72
2023/01/17 02:51:25;;;;;;;11.38;5.43;;;;;;;1.63;100.00;97504.41;5056966;28;20587;-71
2023/01/17 02:54:27;;;;;;;11.40;5.50;;;;;;;1.60;100.00;97507.47;5060718;28;20111;-73
2023/01/17 02:56:55;;;;;;;9.90;5.97;;;;;;;1.60;100.00;97504.66;4992975;28;20033;-73
2023/01/17 02:59:40;;;;;;;13.88;6.40;;;;;;;1.66;100.00;97499.81;5003751;28;20443;-72
2023/01/17 03:02:24;;;;;;;10.13;5.95;;;;;;;1.69;100.00;97498.81;5073502;28;20376;-73
2023/01/17 03:04:59;;;;;;;7.95;4.93;;;;;;;1.72;100.00;97501.41;5075288;28;20032;-71
2023/01/17 03:07:27;;;;;;;7.90;4.80;;;;;;;1.75;100.00;97491.94;5073591;28;20020;-72
2023/01/17 03:10:03;;;;;;;10.48;5.35;;;;;;;1.81;100.00;97503.25;5073171;28;20059;-72
2023/01/17 03:12:32;;;;;;;7.40;4.18;;;;;;;1.90;100.00;97500.22;5073254;28;20111;-71
2023/01/17 03:14:58;;;;;;;7.32;4.43;;;;;;;1.99;100.00;97502.09;5056381;28;20036;-72
2023/01/17 03:17:29;;;;;;;7.30;4.55;;;;;;;2.08;100.00;97501.88;5074289;28;20408;-71
2023/01/17 03:19:55;;;;;;;6.65;4.82;;;;;;;2.15;100.00;97499.34;5055958;28;20029;-72
2023/01/17 03:22:23;;;;;;;7.43;4.50;;;;;;;2.22;100.00;97493.25;5074258;28;20032;-71
2023/01/17 03:24:48;;;;;;;6.10;4.00;;;;;;;2.28;100.00;97507.34;5074098;28;20111;-72
2023/01/17 03:27:15;;;;;;;5.47;3.65;;;;;;;2.32;100.00;97514.28;5074175;28;20092;-71
2023/01/17 03:29:41;;;;;;;6.03;3.63;;;;;;;2.32;100.00;97491.75;5076103;28;20426;-73
2023/01/17 03:32:07;;;;;;;7.35;3.90;;;;;;;2.48;100.00;97500.78;5094231;28;20032;-71
2023/01/17 03:34:33;;;;;;;6.80;4.25;;;;;;;2.59;100.00;97512.06;5075822;28;20027;-70
2023/01/17 03:36:59;;;;;;;7.75;4.68;;;;;;;2.61;100.00;97517.97;5093927;28;20510;-72
2023/01/17 03:39:26;;;;;;;6.90;3.63;;;;;;;2.66;100.00;97509.53;5094000;28;20106;-72
2023/01/17 03:41:53;;;;;;;5.60;3.90;;;;;;;2.68;100.00;97504.19;5093792;28;20031;-73
2023/01/17 03:44:19;;;;;;;6.93;4.25;;;;;;;2.66;100.00;97511.59;5092711;28;20100;-71
2023/01/17 03:46:45;;;;;;;7.45;4.78;;;;;;;2.57;100.00;97512.59;5093800;28;20035;-71
2023/01/17 03:49:11;;;;;;;7.03;4.70;;;;;;;2.51;100.00;97506.16;5093930;28;20027;-72
2023/01/17 03:51:37;;;;;;;13.85;7.13;;;;;;;2.40;100.00;97506.13;5093950;28;20111;-71
2023/01/17 03:54:03;;;;;;;13.70;6.25;;;;;;;2.26;100.00;97510.66;5094170;28;20035;-70
2023/01/17 03:56:28;;;;;;;11.65;7.13;;;;;;;2.15;100.00;97512.66;5075510;28;20020;-72
2023/01/17 03:58:57;;;;;;;11.38;6.80;;;;;;;2.01;100.00;97507.97;5094014;28;20504;-72
2023/01/17 04:01:24;;;;;;;12.98;7.13;;;;;;;1.72;100.00;97480.94;5093673;28;20031;-73
2023/01/17 04:03:51;;;;;;;14.73;7.72;;;;;;;1.78;100.00;97501.44;5075674;28;20059;-71
2023/01/17 04:06:18;;;;;;;14.73;7.32;;;;;;;1.70;100.00;97508.81;5093693;28;20065;-72
2023/01/17 04:08:45;;;;;;;12.10;6.30;;;;;;;1.60;100.00;97516.66;5093878;28;20016;-72
2023/01/17 04:11:11;;;;;;;10.63;6.53;;;;;;;1.57;100.00;97519.72;5075459;28;20020;-71
2023/01/17 04:13:37;;;;;;;14.98;7.60;;;;;;;1.50;100.00;97523.00;5093887;28;20067;-71
2023/01/17 04:16:04;;;;;;;11.63;6.80;;;;;;;1.40;100.00;97519.59;5093635;28;20024;-73
2023/01/17 04:18:30;;;;;;;10.27;6.03;;;;;;;1.51;100.00;97542.16;5075798;28;20016;-73
2023/01/17 04:20:56;;;;;;;16.85;6.80;;;;;;;1.46;100.00;97538.03;5075071;28;20039;-73
2023/01/17 04:23:22;;;;;;;10.57;6.22;;;;;;;1.45;100.00;97533.69;5093572;28;20024;-74
2023/01/17 04:25:48;;;;;;;9.40;6.18;;;;;;;1.30;100.00;97521.81;5093278;28;20056;-74
2023/01/17 04:28:14;;;;;;;11.25;5.85;;;;;;;1.36;100.00;97539.50;5093350;28;20066;-72
2023/01/17 04:30:41;;;;;;;10.40;5.80;;;;;;;1.31;100.00;97543.03;5093171;28;20071;-73
2023/01/17 04:33:08;;;;;;;11.13;5.60;;;;;;;1.27;100.00;97538.91;5097131;28;20114;-73
2023/01/17 04:35:34;;;;;;;10.32;5.18;;;;;;;1.21;100.00;97532.44;5097595;28;20024;-73
2023/01/17 04:38:01;;;;;;;10.20;5.82;;;;;;;1.16;100.00;97527.56;5097381;28;20069;-72
2023/01/17 04:40:28;;;;;;;6.88;4.57;;;;;;;1.09;100.00;97536.44;5097402;28;20077;-72
2023/01/17 04:42:57;;;;;;;6.85;3.92;;;;;;;1.03;100.00;97536.38;5097280;28;20024;-72
2023/01/17 04:45:24;;;;;;;5.80;3.85;;;;;;;1.02;100.00;97532.00;5097412;28;20417;-74
2023/01/17 04:47:49;;;;;;;7.22;4.55;;;;;;;0.90;100.00;97522.72;5097377;28;20024;-73
2023/01/17 04:50:15;;;;;;;8.13;4.97;;;;;;;0.85;100.00;97519.84;5097174;28;20480;-72
2023/01/17 04:52:40;;;;;;;8.98;4.00;;;;;;;0.97;100.00;97538.34;5097064;28;20109;-73
2023/01/17 04:55:06;;;;;;;6.13;3.92;;;;;;;0.99;100.00;97538.63;5097053;28;20024;-72
2023/01/17 04:57:32;;;;;;;7.03;3.75;;;;;;;1.01;100.00;97536.84;5096985;28;20024;-73
2023/01/17 04:59:59;;;;;;;5.75;3.80;;;;;;;0.98;100.00;97529.44;5095024;28;20032;-73
2023/01/17 05:02:25;;;;;;;4.00;2.80;;;;;;;0.99;100.00;97528.16;5097218;28;20104;-74
2023/01/17 05:04:51;;;;;;;5.50;3.10;;;;;;;1.08;100.00;97530.03;5095777;28;20388;-72
2023/01/17 05:07:16;;;;;;;5.28;3.10;;;;;;;1.17;100.00;97527.03;5096682;28;20476;-72
2023/01/17 05:09:42;;;;;;;5.43;3.40;;;;;;;1.26;100.00;97524.06;5097193;28;20020;-74
2023/01/17 05:12:08;;;;;;;7.43;3.85;;;;;;;1.47;100.00;97542.41;5096289;28;20028;-73
2023/01/17 05:14:34;;;;;;;5.72;3.47;;;;;;;1.52;100.00;97542.94;5096595;28;20035;-74
2023/01/17 05:17:01;;;;;;;6.03;3.33;;;;;;;1.52;100.00;97540.91;5096906;28;20050;-73
2023/01/17 05:19:30;;;;;;;6.82;3.67;;;;;;;1.43;100.00;97524.97;5097093;28;20365;-73
2023/01/17 05:22:02;;;;;;;5.85;4.07;;;;;;;1.34;100.00;97525.16;5096483;28;20020;-73
2023/01/17 05:24:36;;;;;;;5.90;3.60;;;;;;;1.41;100.00;97543.63;5096737;28;20054;-74
2023/01/17 05:27:02;;;;;;;5.57;3.20;;;;;;;1.41;100.00;97529.56;5096393;28;20073;-74
2023/01/17 05:29:29;;;;;;;7.72;3.40;;;;;;;1.39;100.00;97520.84;5096148;28;20044;-74
2023/01/17 05:31:55;;;;;;;5.82;3.97;;;;;;;1.39;100.00;97527.25;5094994;28;20035;-73
2023/01/17 05:34:21;;;;;;;5.13;3.72;;;;;;;1.27;100.00;97522.78;5095009;28;20024;-73
2023/01/17 05:36:48;;;;;;;5.38;3.50;;;;;;;1.24;100.00;97517.41;5095321;28;20081;-75
2023/01/17 05:39:15;;;;;;;2.88;2.30;;;;;;;1.33;100.00;97531.28;5093990;28;20040;-75
2023/01/17 05:41:42;;;;;;;5.50;2.95;;;;;;;1.35;100.00;97532.34;5094912;28;20495;-74
2023/01/17 05:44:08;;;;;;;3.85;3.03;;;;;;;1.34;100.00;97533.59;5093664;28;20169;-74
2023/01/17 05:46:34;;;;;;;4.75;3.15;;;;;;;1.35;100.00;97534.38;5094581;28;20115;-75
2023/01/17 05:49:01;;;;;;;5.28;2.90;;;;;;;1.38;100.00;97542.59;5094724;28;20522;-75
2023/01/17 05:51:28;;;;;;;5.18;2.65;;;;;;;1.36;100.00;97533.09;5094008;28;20051;-73
2023/01/17 05:53:55;;;;;;;4.32;2.65;;;;;;;1.39;100.00;97537.72;5094868;28;20020;-74
2023/01/17 05:56:22;;;;;;;4.00;2.55;;;;;;;1.42;100.00;97539.53;5093430;28;20113;-75
2023/01/17 05:58:49;;;;;;;3.03;2.38;;;;;;;1.56;100.00;97547.06;5074361;28;20030;-73
2023/01/17 06:01:16;;;;;;;5.18;2.17;;;;;;;1.68;100.00;97543.09;5074624;28;20024;-73
2023/01/17 06:03:43;;;;;;;5.90;3.20;;;;;;;1.84;100.00;97547.28;5074124;28;20023;-77
2023/01/17 06:06:09;;;;;;;4.35;2.63;;;;;;;1.85;100.00;97548.81;5074447;28;20061;-73
2023/01/17 06:08:36;;;;;;;7.95;3.80;;;;;;;1.94;100.00;97553.50;5061247;28;20019;-71
2023/01/17 06:11:01;;;;;;;5.10;3.05;;;;;;;1.98;100.00;97563.25;5059427;28;20054;-73
2023/01/17 06:13:28;;;;;;;4.00;2.42;;;;;;;2.00;100.00;97563.50;5076515;28;20103;-72
2023/01/17 06:15:56;;;;;;;4.13;2.30;;;;;;;2.07;100.00;97567.91;5093972;28;20060;-70
2023/01/17 06:18:21;;;;;;;3.55;2.72;;;;;;;2.03;100.00;97542.81;5088572;28;20040;-71
2023/01/17 06:20:53;;;;;;;4.50;1.98;;;;;;;2.18;100.00;97554.69;5075213;28;20483;-72
2023/01/17 06:23:24;;;;;;;4.32;1.65;;;;;;;2.27;100.00;97557.28;5092893;28;20024;-72
2023/01/17 06:26:11;;;;;;;3.28;1.60;;;;;;;2.41;100.00;97563.25;5093342;28;20024;-71
2023/01/17 06:28:36;;;;;;;1.92;1.75;;;;;;;2.43;100.00;97561.47;5091284;28;20016;-72
2023/01/17 06:31:07;;;;;;;6.07;1.77;;;;;;;2.55;100.00;97557.41;5024796;28;1275898;-71
2023/01/17 06:33:32;;;;;;;2.92;1.50;;;;;;;2.54;100.00;97544.59;5072670;28;20336;-73
2023/01/17 06:35:58;;;;;;;2.50;1.95;;;;;;;2.65;100.00;97557.97;5073955;28;20382;-72
2023/01/17 06:38:23;;;;;;;2.33;1.20;;;;;;;2.71;100.00;97555.94;5073547;28;20424;-70
2023/01/17 06:40:49;;;;;;;3.92;1.50;;;;;;;2.68;100.00;97569.03;5073539;28;20033;-73
2023/01/17 06:43:14;;;;;;;6.00;1.55;;;;;;;2.74;100.00;97581.06;5071412;28;20028;-73
2023/01/17 06:45:40;;;;;;;1.92;1.40;;;;;;;2.77;100.00;97584.94;5072576;28;20021;-71
2023/01/17 06:48:06;;;;;;;3.10;1.70;;;;;;;2.81;100.00;97579.81;5073240;28;20465;-72
2023/01/17 06:50:32;;;;;;;13.45;2.47;;;;;;;2.81;100.00;97585.47;5054218;28;20024;-72
2023/01/17 06:53:00;;;;;;;14.95;3.30;;;;;;;2.87;100.00;97591.13;5072290;28;20028;-72
2023/01/17 06:55:29;;;;;;;14.52;2.40;;;;;;;2.92;100.00;97590.38;5070137;28;20028;-82
2023/01/17 06:57:58;;;;;;;3.85;2.08;;;;;;;2.97;100.00;97593.22;5072962;28;20071;-80
2023/01/17 07:00:25;;;;;;;5.85;2.30;;;;;;;2.99;100.00;97601.94;5072672;28;20350;-82
2023/01/17 07:02:53;;;;;;;26.95;4.63;;;;;;;3.00;100.00;97599.88;5072436;28;20350;-81
2023/01/17 07:05:19;;;;;;;6.22;2.05;;;;;;;3.02;100.00;97603.75;5075537;28;20051;-83
2023/01/17 07:07:45;;;;;;;8.02;2.53;;;;;;;3.07;100.00;97611.47;5075808;28;20028;-83
2023/01/17 07:10:12;;;;;;;8.25;2.35;;;;;;;3.11;100.00;97614.78;5090600;28;20084;-82
2023/01/17 07:12:38;;;;;;;9.07;2.08;;;;;;;3.13;100.00;97631.97;5091956;28;20025;-82
2023/01/17 07:15:05;;;;;;;6.43;1.85;;;;;;;3.17;100.00;97626.88;5080773;28;20190;-82
2023/01/17 07:17:32;;;;;;;6.28;1.75;;;;;;;3.16;100.00;97633.78;5073682;28;20119;-76
2023/01/17 07:19:58;;;;;;;11.35;3.13;;;;;;;3.18;100.00;97630.47;5062623;28;20035;-75
2023/01/17 07:22:25;;;;;;;13.73;2.55;;;;;;;3.15;100.00;97629.44;5065487;28;20044;-77
2023/01/17 07:24:57;;;;;;;7.95;2.65;;;;;;;3.15;100.00;97623.78;5069697;28;20098;-76
2023/01/17 07:27:37;;;;;;;12.50;3.38;;;;;;;3.20;100.00;97627.91;5065658;28;20118;-77
2023/01/17 07:30:05;;;;;;;22.67;3.55;;;;;;;3.31;100.00;97644.09;5069171;28;20055;-76
2023/01/17 07:32:30;;;;;;;7.75;2.45;;;;;;;3.34;100.00;97640.25;5084646;28;20028;-80
2023/01/17 07:35:00;;;;;;;10.93;2.67;;;;;;;3.27;100.00;97643.56;5093923;28;20024;-79
2023/01/17 07:37:26;;;;;;;7.97;2.10;;;;;;;3.22;100.00;97645.09;5061581;28;20028;-80
2023/01/17 07:39:53;;;;;;;6.72;2.25;;;;;;;3.20;100.00;97639.19;5074387;28;20028;-81
2023/01/17 07:42:20;;;;;;;10.90;3.00;;;;;;;3.19;100.00;97629.16;5074516;28;20415;-80
2023/01/17 07:44:47;;;;;;;4.07;2.25;;;;;;;3.25;100.00;97632.78;5057269;28;20051;-79
2023/01/17 07:47:13;;;;;;;6.93;2.83;;;;;;;3.26;100.00;97631.50;5074982;28;20043;-78
2023/01/17 07:49:41;;;;;;;7.85;3.00;;;;;;;3.26;100.00;97631.50;5074090;28;20071;-78
2023/01/17 07:52:08;;;;;;;8.32;3.97;;;;;;;3.35;100.00;97645.38;5074148;28;20024;-81
2023/01/17 07:54:34;;;;;;;11.40;3.42;;;;;;;3.31;100.00;97638.44;5074219;28;20519;-79
2023/01/17 07:57:01;;;;;;;9.05;3.22;;;;;;;3.28;100.00;97654.34;5073572;28;20111;-76
2023/01/17 07:59:35;;;;;;;7.20;3.17;;;;;;;3.19;100.00;97652.50;5074093;28;20365;-78
2023/01/17 08:02:02;;;;;;;9.40;3.25;;;;;;;3.21;100.00;97660.47;5073646;28;20020;-80
2023/01/17 08:04:33;;;;;;;6.43;3.30;;;;;;;3.15;100.00;97654.81;5073379;28;20073;-82
2023/01/17 08:07:02;;;;;;;11.68;3.13;;;;;;;3.19;100.00;97669.44;5057213;28;20020;-81
2023/01/17 08:09:28;;;;;;;7.35;3.60;;;;;;;3.15;100.00;97663.28;5039520;28;20048;-80
2023/01/17 08:11:54;;;;;;;6.10;2.92;;;;;;;3.17;100.00;97676.88;5055521;28;20128;-80
2023/01/17 08:14:19;;;;;;;6.30;3.35;;;;;;;3.20;100.00;97684.31;5055371;28;20052;-79
2023/01/17 08:16:47;;;;;;;5.80;2.80;;;;;;;3.27;100.00;97675.38;5055360;28;20020;-80
2023/01/17 08:19:21;;;;;;;9.68;2.75;;;;;;;3.44;100.00;97690.31;5054863;28;20020;-79
2023/01/17 08:21:47;;;;;;;10.00;3.00;;;;;;;3.61;100.00;97691.13;5073114;28;20129;-81
2023/01/17 08:24:13;;;;;;;9.40;2.97;;;;;;;3.78;100.00;97691.16;5072503;28;20039;-79
2023/01/17 08:26:40;;;;;;;7.30;2.78;;;;;;;3.86;100.00;97695.03;5055387;28;20032;-79
2023/01/17 08:29:07;;;;;;;9.48;2.78;;;;;;;4.00;100.00;97696.09;5073202;28;20377;-79
2023/01/17 08:31:34;;;;;;;9.02;3.50;;;;;;;4.13;100.00;97696.38;5073028;28;20048;-79
2023/01/17 08:34:00;;;;;;;8.10;3.92;;;;;;;4.24;100.00;97693.56;5073654;28;20016;-79
2023/01/17 08:36:27;;;;;;;11.05;4.00;;;;;;;4.32;100.00;97697.41;5073359;28;20107;-77
2023/01/17 08:38:54;;;;;;;11.90;3.65;;;;;;;4.44;100.00;97698.16;5055554;28;20508;-79
2023/01/17 08:41:28;;;;;;;12.98;4.45;;;;;;;4.64;100.00;97706.38;5073388;28;20020;-78
2023/01/17 08:43:54;;;;;;;12.93;5.18;;;;;;;4.81;100.00;97709.94;5073115;28;20097;-77
2023/01/17 08:46:21;;;;;;;9.40;4.65;;;;;;;4.87;100.00;97707.88;5072448;28;20037;-77
2023/01/17 08:48:47;;;;;;;20.67;6.93;;;;;;;5.04;100.00;97707.06;5055542;28;20039;-78
2023/01/17 08:51:14;;;;;;;9.13;4.53;;;;;;;5.06;100.00;97704.47;5055097;28;20028;-77
2023/01/17 08:53:42;;;;;;;8.70;4.05;;;;;;;5.02;100.00;97718.13;5072850;28;20501;-77
2023/01/17 08:56:08;;;;;;;7.90;3.88;;;;;;;5.07;100.00;97706.00;5073284;28;20123;-77
2023/01/17 08:58:34;;;;;;;12.40;4.35;;;;;;;5.11;100.00;97715.78;5055070;28;20477;-77
2023/01/17 09:01:02;;;;;;;9.68;4.18;;;;;;;5.21;100.00;97708.53;5071856;28;20029;-77
2023/01/17 09:03:30;;;;;;;12.40;3.42;;;;;;;5.29;100.00;97714.44;5055112;28;20039;-80
2023/01/17 09:06:01;;;;;;;7.03;3.25;;;;;;;5.37;100.00;97724.72;5038454;28;20370;-78
2023/01/17 09:08:28;;;;;;;9.25;4.40;;;;;;;5.44;100.00;97723.41;5073041;28;20033;-77
2023/01/17 09:10:53;;;;;;;5.95;3.00;;;;;;;5.56;100.00;97724.09;5072592;28;20045;-77
2023/01/17 09:13:19;;;;;;;5.15;2.65;;;;;;;5.52;100.00;97709.44;5072696;28;20055;-80
2023/01/17 09:15:44;;;;;;;8.10;4.40;;;;;;;5.62;100.00;97730.53;5038869;28;20458;-78
2023/01/17 09:18:09;;;;;;;12.57;2.35;;;;;;;5.61;100.00;97720.47;5040132;28;20039;-79
2023/01/17 09:20:35;;;;;;;3.35;2.05;;;;;;;5.69;100.00;97730.75;5076757;28;20048;-80
2023/01/17 09:23:02;;;;;;;6.00;2.40;;;;;;;5.85;100.00;97731.94;5076356;28;20494;-78
2023/01/17 09:25:30;;;;;;;7.50;2.88;;;;;;;5.99;100.00;97733.66;5075583;28;20401;-79
2023/01/17 09:27:56;;;;;;;6.78;3.22;;;;;;;6.05;100.00;97730.78;5058377;28;20036;-90
2023/01/17 09:30:24;;;;;;;4.10;2.40;;;;;;;6.10;100.00;97732.81;5055423;28;20521;-90
2023/01/17 09:32:53;;;;;;;6.57;3.08;;;;;;;6.13;100.00;97726.88;5056628;28;20032;-88
2023/01/17 09:35:19;;;;;;;11.98;2.90;;;;;;;6.26;100.00;97729.09;5055972;28;20032;-78
2023/01/17 09:37:50;;;;;;;4.13;1.92;;;;;;;6.43;100.00;97734.69;5075060;28;20048;-78
2023/01/17 09:40:22;;;;;;;4.80;1.80;;;;;;;6.73;100.00;97735.47;5076279;28;20103;-77
2023/01/17 09:43:00;;;;;;;2.53;1.38;;;;;;;7.00;96.30;97745.78;5075164;28;20051;-77
2023/01/17 09:45:29;;;;;;;2.78;1.50;;;;;;;7.15;92.93;97730.41;5075083;28;20028;-78
2023/01/17 09:48:05;;;;;;;2.55;1.52;;;;;;;7.23;91.65;97737.00;5076241;28;20033;-78
2023/01/17 09:50:32;;;;;;;2.50;1.80;;;;;;;7.31;89.25;97760.69;5075912;28;20458;-77
2023/01/17 09:53:19;;;;;;;3.70;1.20;;;;;;;7.28;87.24;97751.16;5076072;28;20044;-79
2023/01/17 09:56:05;;;;;;;4.18;1.17;;;;;;;7.34;87.18;97745.41;5059790;28;20116;-79
2023/01/17 09:59:19;;;;;;;6.05;1.75;;;;;;;7.37;85.82;97744.38;5075187;28;20029;-79
2023/01/17 10:02:10;;;;;;;3.50;1.50;;;;;;;7.19;84.75;97750.75;5067619;28;20105;-79
2023/01/17 10:04:47;;;;;;;2.38;1.10;;;;;;;7.06;83.78;97752.19;5075733;28;20354;-77
2023/01/17 10:07:28;;;;;;;3.63;1.10;;;;;;;6.89;84.58;97743.03;5075904;28;20035;-79
2023/01/17 10:10:01;;;;;;;2.75;1.02;;;;;;;6.81;85.02;97752.69;5076006;28;20028;-77
2023/01/17 10:12:54;;;;;;;3.90;1.50;;;;;;;6.57;85.85;97716.53;5057505;28;20036;-78
2023/01/17 10:15:38;;;;;;;4.32;1.63;;;;;;;6.63;88.33;97740.69;5074489;28;20031;-78
2023/01/17 10:18:18;;;;;;;5.15;1.52;;;;;;;6.47;87.15;97750.13;5075591;28;20074;-78
2023/01/17 10:20:57;;;;;;;7.68;1.38;;;;;;;6.37;88.39;97736.78;5075211;28;20051;-78
2023/01/17 10:23:43;;;;;;;5.60;1.60;;;;;;;6.31;89.55;97730.38;5074137;28;20036;-78
2023/01/17 10:26:23;;;;;;;2.97;1.38;;;;;;;6.22;87.68;97746.41;5075522;28;20040;-79
2023/01/17 10:28:52;;;;;;;7.85;2.25;;;;;;;6.18;88.88;97750.81;5074515;28;20028;-78
2023/01/17 10:31:26;;;;;;;4.88;1.40;;;;;;;6.15;89.53;97741.28;5057022;28;20113;-78
2023/01/17 10:33:55;;;;;;;4.55;1.52;;;;;;;6.06;91.25;97738.00;5075145;28;20077;-77
2023/01/17 10:36:24;;;;;;;3.90;1.63;;;;;;;5.94;93.85;97740.16;5074940;28;20039;-77
2023/01/17 10:38:53;;;;;;;2.67;1.42;;;;;;;5.81;94.66;97732.22;5074934;28;20028;-79
2023/01/17 10:41:36;;;;;;;1.35;1.08;;;;;;;5.65;96.20;97744.41;5072857;28;20617;-78
2023/01/17 10:44:44;;;;;;;3.55;1.23;;;;;;;5.49;96.06;97745.25;5073572;28;20039;-78
2023/01/17 10:47:20;;;;;;;1.80;1.13;;;;;;;5.34;94.70;97754.06;5074680;28;20462;-78
2023/01/17 10:49:50;;;;;;;3.17;1.52;;;;;;;5.17;95.59;97761.06;5074693;28;20036;-78
2023/01/17 10:52:46;;;;;;;2.20;1.30;;;;;;;5.10;98.52;97764.44;5073936;28;20032;-80
2023/01/17 10:55:20;;;;;;;1.92;1.15;;;;;;;5.01;99.87;97764.69;5079448;28;20095;-84
2023/01/17 10:57:48;;;;;;;3.20;1.60;;;;;;;4.92;100.00;97762.91;5084389;28;20044;-81
2023/01/17 11:00:43;;;;;;;4.75;2.33;;;;;;;4.90;100.00;97766.28;5066543;28;20538;-81
2023/01/17 11:03:24;;;;;;;3.97;1.88;;;;;;;4.87;100.00;97758.81;5078490;28;20028;-82
2023/01/17 11:06:19;;;;;;;3.17;1.63;;;;;;;4.76;100.00;97746.75;5074185;28;20036;-78
2023/01/17 11:09:00;;;;;;;5.78;1.77;;;;;;;4.71;100.00;97741.88;5067314;28;20040;-78
2023/01/17 11:11:32;;;;;;;2.75;1.45;;;;;;;4.70;100.00;97743.91;5073303;28;20058;-77
2023/01/17 11:14:23;;;;;;;3.33;2.13;;;;;;;4.67;100.00;97746.97;5073589;28;20115;-80
2023/01/17 11:17:01;;;;;;;9.45;2.80;;;;;;;4.65;100.00;97741.88;5073552;28;20046;-81
2023/01/17 11:19:34;;;;;;;6.97;2.40;;;;;;;4.64;100.00;97742.38;5040280;28;20035;-81
2023/01/17 11:22:06;;;;;;;1.77;1.58;;;;;;;4.56;100.00;97739.31;5075267;28;20036;-82
2023/01/17 11:24:40;;;;;;;4.53;2.40;;;;;;;4.53;100.00;97745.97;5075340;28;20378;-80
2023/01/17 11:27:21;;;;;;;5.47;2.22;;;;;;;4.55;100.00;97743.41;5074530;28;20367;-80
2023/01/17 11:30:28;;;;;;;9.70;1.85;;;;;;;4.56;100.00;97736.47;5079343;28;20044;-82
2023/01/17 11:33:03;;;;;;;3.45;1.80;;;;;;;4.63;100.00;97744.44;5078133;28;20053;-81
2023/01/17 11:35:34;;;;;;;3.50;1.67;;;;;;;4.67;100.00;97730.78;5096660;28;20426;-82
2023/01/17 11:38:19;;;;;;;3.10;2.08;;;;;;;4.76;100.00;97738.25;5077843;28;20028;-82
2023/01/17 11:40:47;;;;;;;3.63;1.58;;;;;;;4.81;100.00;97737.44;5076897;28;20028;-80
2023/01/17 11:43:25;;;;;;;3.88;1.65;;;;;;;4.88;100.00;97740.53;5061011;28;20056;-80
2023/01/17 11:46:12;;;;;;;2.50;1.67;;;;;;;4.97;100.00;97741.53;5096116;28;20052;-81
2023/01/17 11:48:38;;;;;;;6.80;1.90;;;;;;;5.08;100.00;97747.97;5095005;28;20123;-82
2023/01/17 11:51:38;;;;;;;6.53;1.67;;;;;;;5.07;99.66;97751.31;5077275;28;20081;-81
2023/01/17 11:54:25;;;;;;;4.18;2.20;;;;;;;5.11;100.00;97746.13;5070810;28;20055;-81
2023/01/17 11:56:59;;;;;;;5.03;1.90;;;;;;;5.25;100.00;97753.59;5044377;28;20035;-80
2023/01/17 11:59:33;;;;;;;4.88;1.80;;;;;;;5.22;99.56;97752.56;5060252;28;20035;-78
2023/01/17 12:02:17;;;;;;;4.43;1.90;;;;;;;5.25;100.00;97753.59;5094533;28;20028;-76
2023/01/17 12:04:52;;;;;;;9.55;1.75;;;;;;;5.31;99.66;97743.00;5094021;28;20053;-76
2023/01/17 12:07:34;;;;;;;3.65;1.63;;;;;;;5.41;99.08;97751.97;5076446;28;20103;-75
2023/01/17 12:10:29;;;;;;;1.98;1.33;;;;;;;5.43;97.56;97746.56;5094255;28;20046;-76
2023/01/17 12:16:31;;;;;;;2.00;1.15;;;;;;;5.46;96.16;97745.50;5093600;28;20096;-70
2023/01/17 12:19:13;;;;;;;3.13;1.40;;;;;;;5.44;95.40;97745.28;5093690;28;20028;-70
2023/01/17 12:22:03;;;;;;;4.97;1.98;;;;;;;5.50;95.49;97740.38;5075478;28;20038;-69
2023/01/17 12:24:31;;;;;;;2.03;1.38;;;;;;;5.57;94.64;97743.41;5075831;28;20024;-71
2023/01/17 12:27:05;;;;;;;3.08;1.58;;;;;;;5.56;93.71;97743.94;5093307;28;20024;-70
2023/01/17 12:29:46;;;;;;;2.05;1.30;;;;;;;5.57;93.57;97734.91;5093205;28;20024;-70
2023/01/17 12:32:34;;;;;;;13.47;2.80;;;;;;;5.54;93.64;97741.63;5093882;28;20031;-72
2023/01/17 12:35:26;;;;;;;5.28;1.33;;;;;;;5.56;94.08;97738.25;5075312;28;20750;-71
2023/01/17 12:38:00;;;;;;;5.50;1.45;;;;;;;5.59;94.34;97743.69;5093498;28;20028;-69
2023/01/17 12:40:38;;;;;;;2.13;1.30;;;;;;;5.66;93.78;97737.44;5075586;28;20122;-72
2023/01/17 12:43:24;;;;;;;1.20;1.00;;;;;;;5.67;92.80;97739.00;5076908;28;20043;-71
2023/01/17 12:46:10;;;;;;;4.82;1.05;;;;;;;5.67;91.21;97736.16;5075418;28;20062;-71
2023/01/17 12:48:38;;;;;;;2.97;1.63;;;;;;;5.65;90.76;97738.75;5075573;28;20028;-71
2023/01/17 12:51:14;;;;;;;2.97;1.25;;;;;;;5.65;88.54;97747.22;5075762;28;20059;-73
2023/01/17 12:53:56;;;;;;;3.08;1.52;;;;;;;5.70;88.84;97743.59;5061562;28;20534;-72
2023/01/17 12:56:43;;;;;;;2.38;1.58;;;;;;;5.76;88.21;97744.34;5098045;28;20058;-75
2023/01/17 12:59:31;;;;;;;5.03;1.80;;;;;;;5.86;88.09;97744.81;5098124;28;20054;-72
2023/01/17 13:02:21;;;;;;;1.85;1.40;;;;;;;5.96;87.92;97739.59;5097896;28;20033;-69
2023/01/17 13:05:08;;;;;;;2.85;1.58;;;;;;;6.04;88.17;97747.03;5079659;28;20035;-72
2023/01/17 13:07:52;;;;;;;5.60;1.65;;;;;;;6.13;87.19;97749.56;5096320;28;20040;-72
2023/01/17 13:10:44;;;;;;;3.67;1.60;;;;;;;6.26;86.61;97760.28;5097045;28;20375;-72
2023/01/17 13:13:25;;;;;;;1.63;1.08;;;;;;;6.43;84.07;97769.50;5096624;28;20457;-72
2023/01/17 13:15:56;;;;;;;2.38;1.30;;;;;;;6.48;80.29;97770.75;5096676;28;20110;-73
2023/01/17 13:18:28;;;;;;;3.37;1.33;;;;;;;6.56;79.68;97783.06;5062492;28;20137;-76